createdAt,value
2023-05-01T00:00:58.899Z,152.75
2023-05-01T00:01:58.925Z,152.55
2023-05-01T00:02:59.029Z,150.82
2023-05-01T00:03:59.193Z,149.56
2023-05-01T00:04:59.102Z,147.12
2023-05-01T00:05:59.102Z,151.76
2023-05-01T00:06:59.129Z,146.46
2023-05-01T00:07:59.127Z,149.68
2023-05-01T00:08:59.163Z,148.12
2023-05-01T00:09:59.296Z,146.75
2023-05-01T00:10:59.222Z,150.20
2023-05-01T00:11:59.255Z,149.74
2023-05-01T00:12:59.306Z,150.43
2023-05-01T00:13:59.383Z,150.81
2023-05-01T00:14:59.362Z,150.97
2023-05-01T00:15:59.455Z,148.23
2023-05-01T00:16:59.577Z,148.47
2023-05-01T00:17:59.595Z,150.00
2023-05-01T00:18:59.549Z,148.39
2023-05-01T00:19:59.817Z,149.81
2023-05-01T00:20:59.630Z,148.03
2023-05-01T00:21:59.724Z,148.83
2023-05-01T00:22:59.743Z,145.89
2023-05-01T00:23:59.742Z,146.50
2023-05-01T00:24:59.800Z,148.85
2023-05-01T00:25:59.836Z,149.22
2023-05-01T00:26:59.886Z,148.80
2023-05-01T00:27:59.990Z,146.80
2023-05-01T00:28:59.947Z,149.56
2023-05-01T00:30:00.024Z,147.63
2023-05-01T00:31:00.030Z,149.70
2023-05-01T00:32:00.187Z,150.44
2023-05-01T00:33:00.213Z,149.98
2023-05-01T00:34:00.234Z,149.22
2023-05-01T00:35:00.223Z,148.61
2023-05-01T00:36:00.256Z,148.07
2023-05-01T00:37:00.292Z,151.22
2023-05-01T00:38:00.335Z,146.98
2023-05-01T00:39:00.407Z,145.19
2023-05-01T00:40:00.402Z,149.07
2023-05-01T00:41:00.478Z,145.51
2023-05-01T00:42:00.535Z,146.31
2023-05-01T00:43:00.549Z,145.46
2023-05-01T00:44:00.611Z,149.35
2023-05-01T00:45:00.683Z,147.53
2023-05-01T00:46:00.720Z,146.46
2023-05-01T00:47:00.709Z,143.87
2023-05-01T00:48:00.911Z,144.58
2023-05-01T00:49:00.850Z,146.03
2023-05-01T00:50:00.838Z,147.66
2023-05-01T00:51:00.908Z,144.73
2023-05-01T00:52:00.904Z,145.87
2023-05-01T00:53:00.937Z,146.65
2023-05-01T00:54:01.009Z,143.85
2023-05-01T00:55:01.014Z,147.16
2023-05-01T00:56:01.083Z,147.31
2023-05-01T00:57:01.146Z,146.27
2023-05-01T00:58:01.114Z,146.48
2023-05-01T00:59:01.214Z,145.58
2023-05-01T01:00:01.215Z,146.21
2023-05-01T01:01:01.299Z,144.99
2023-05-01T01:02:01.341Z,146.04
2023-05-01T01:03:01.427Z,141.16
2023-05-01T01:04:01.437Z,146.76
2023-05-01T01:05:01.423Z,144.07
2023-05-01T01:06:01.535Z,144.92
2023-05-01T01:07:01.534Z,141.05
2023-05-01T01:08:01.567Z,144.39
2023-05-01T01:09:01.638Z,144.71
2023-05-01T01:10:01.692Z,144.10
2023-05-01T01:11:01.644Z,141.60
2023-05-01T01:12:01.731Z,145.33
2023-05-01T01:13:01.760Z,145.11
2023-05-01T01:14:01.821Z,146.58
2023-05-01T01:15:01.895Z,144.88
2023-05-01T01:16:01.883Z,144.28
2023-05-01T01:17:01.986Z,145.59
2023-05-01T01:18:02.016Z,144.87
2023-05-01T01:19:02.020Z,148.19
2023-05-01T01:20:02.090Z,145.19
2023-05-01T01:21:02.128Z,143.89
2023-05-01T01:22:02.185Z,144.98
2023-05-01T01:23:02.246Z,146.87
2023-05-01T01:24:02.316Z,145.43
2023-05-01T01:25:02.316Z,142.87
2023-05-01T01:26:02.362Z,145.39
2023-05-01T01:27:02.433Z,143.07
2023-05-01T01:28:02.426Z,145.63
2023-05-01T01:29:02.491Z,146.70
2023-05-01T01:30:02.541Z,144.62
2023-05-01T01:31:02.628Z,145.55
2023-05-01T01:32:02.639Z,140.78
2023-05-01T01:33:02.770Z,142.65
2023-05-01T01:34:02.653Z,146.07
2023-05-01T01:35:02.732Z,146.70
2023-05-01T01:36:02.777Z,147.88
2023-05-01T01:37:02.789Z,141.52
2023-05-01T01:38:02.826Z,143.25
2023-05-01T01:39:02.863Z,143.60
2023-05-01T01:40:02.958Z,140.66
2023-05-01T01:41:02.952Z,143.48
2023-05-01T01:42:02.948Z,142.79
2023-05-01T01:43:02.951Z,145.06
2023-05-01T01:44:02.999Z,142.06
2023-05-01T01:45:03.026Z,143.84
2023-05-01T01:46:03.109Z,141.87
2023-05-01T01:47:03.040Z,141.15
2023-05-01T01:48:03.131Z,139.85
2023-05-01T01:49:03.127Z,140.88
2023-05-01T01:50:03.185Z,144.31
2023-05-01T01:51:03.196Z,141.12
2023-05-01T01:52:03.284Z,142.09
2023-05-01T01:53:03.296Z,140.96
2023-05-01T01:54:03.333Z,137.91
2023-05-01T01:55:03.355Z,142.62
2023-05-01T01:56:03.912Z,144.06
2023-05-01T01:57:03.440Z,141.02
2023-05-01T01:58:03.451Z,142.45
2023-05-01T01:59:03.473Z,141.53
2023-05-01T02:00:03.484Z,141.17
2023-05-01T02:01:03.531Z,140.55
2023-05-01T02:02:03.636Z,140.25
2023-05-01T02:03:03.664Z,141.26
2023-05-01T02:04:03.729Z,141.71
2023-05-01T02:05:03.651Z,140.21
2023-05-01T02:06:03.771Z,142.73
2023-05-01T02:07:03.724Z,139.73
2023-05-01T02:08:03.781Z,140.61
2023-05-01T02:09:03.771Z,140.82
2023-05-01T02:10:03.804Z,139.09
2023-05-01T02:11:03.853Z,140.70
2023-05-01T02:12:03.876Z,139.56
2023-05-01T02:13:03.908Z,138.58
2023-05-01T02:14:03.971Z,139.91
2023-05-01T02:15:03.980Z,139.46
2023-05-01T02:16:04.071Z,139.64
2023-05-01T02:17:04.001Z,139.32
2023-05-01T02:18:04.088Z,137.93
2023-05-01T02:19:04.120Z,140.76
2023-05-01T02:20:04.118Z,138.00
2023-05-01T02:21:04.191Z,139.73
2023-05-01T02:22:04.182Z,136.52
2023-05-01T02:23:04.260Z,137.65
2023-05-01T02:24:04.259Z,138.39
2023-05-01T02:25:04.351Z,138.91
2023-05-01T02:26:04.381Z,139.41
2023-05-01T02:27:04.413Z,140.02
2023-05-01T02:28:04.491Z,136.94
2023-05-01T02:29:04.489Z,136.27
2023-05-01T02:30:04.550Z,139.71
2023-05-01T02:31:04.646Z,135.63
2023-05-01T02:32:04.718Z,138.06
2023-05-01T02:33:04.745Z,137.39
2023-05-01T02:34:04.690Z,137.56
2023-05-01T02:35:04.752Z,137.88
2023-05-01T02:36:04.772Z,137.72
2023-05-01T02:37:04.763Z,138.29
2023-05-01T02:38:04.806Z,138.49
2023-05-01T02:39:04.857Z,139.09
2023-05-01T02:40:04.900Z,140.01
2023-05-01T02:41:04.945Z,141.23
2023-05-01T02:42:04.948Z,134.53
2023-05-01T02:43:04.982Z,137.93
2023-05-01T02:44:05.012Z,140.25
2023-05-01T02:45:05.053Z,136.83
2023-05-01T02:46:05.206Z,136.75
2023-05-01T02:47:05.163Z,136.83
2023-05-01T02:48:05.289Z,136.27
2023-05-01T02:49:05.165Z,136.87
2023-05-01T02:50:05.234Z,136.70
2023-05-01T02:51:05.234Z,134.36
2023-05-01T02:52:05.271Z,135.33
2023-05-01T02:53:05.274Z,137.40
2023-05-01T02:54:05.330Z,134.72
2023-05-01T02:55:05.358Z,135.80
2023-05-01T02:56:05.422Z,136.29
2023-05-01T02:57:05.440Z,138.06
2023-05-01T02:58:05.497Z,136.50
2023-05-01T02:59:05.478Z,137.16
2023-05-01T03:00:05.552Z,136.98
2023-05-01T03:01:05.640Z,135.25
2023-05-01T03:02:05.715Z,139.29
2023-05-01T03:03:05.764Z,138.45
2023-05-01T03:04:05.763Z,135.61
2023-05-01T03:05:05.776Z,137.14
2023-05-01T03:06:05.861Z,135.83
2023-05-01T03:07:05.897Z,134.69
2023-05-01T03:08:05.936Z,135.00
2023-05-01T03:09:05.929Z,132.54
2023-05-01T03:10:05.985Z,136.36
2023-05-01T03:11:06.028Z,134.61
2023-05-01T03:12:06.051Z,137.20
2023-05-01T03:13:06.125Z,135.17
2023-05-01T03:14:06.112Z,133.80
2023-05-01T03:15:06.167Z,133.31
2023-05-01T03:16:06.241Z,135.50
2023-05-01T03:17:06.226Z,133.57
2023-05-01T03:18:06.293Z,133.22
2023-05-01T03:19:06.282Z,138.18
2023-05-01T03:20:06.346Z,134.78
2023-05-01T03:21:06.370Z,130.76
2023-05-01T03:22:06.396Z,135.48
2023-05-01T03:23:06.445Z,132.65
2023-05-01T03:24:06.494Z,135.20
2023-05-01T03:25:06.531Z,139.21
2023-05-01T03:26:06.530Z,134.38
2023-05-01T03:27:06.564Z,133.27
2023-05-01T03:28:06.609Z,135.56
2023-05-01T03:29:06.650Z,134.51
2023-05-01T03:30:06.663Z,133.57
2023-05-01T03:31:06.694Z,132.72
2023-05-01T03:32:06.810Z,133.19
2023-05-01T03:33:06.834Z,133.51
2023-05-01T03:34:06.838Z,132.89
2023-05-01T03:35:06.911Z,136.06
2023-05-01T03:36:06.902Z,133.37
2023-05-01T03:37:06.977Z,134.22
2023-05-01T03:38:06.984Z,135.01
2023-05-01T03:39:07.028Z,134.31
2023-05-01T03:40:07.026Z,133.36
2023-05-01T03:41:07.117Z,133.89
2023-05-01T03:42:07.118Z,132.35
2023-05-01T03:43:07.156Z,131.71
2023-05-01T03:44:07.165Z,133.91
2023-05-01T03:45:07.195Z,135.17
2023-05-01T03:46:07.256Z,133.88
2023-05-01T03:47:07.277Z,131.58
2023-05-01T03:48:07.382Z,132.39
2023-05-01T03:49:07.379Z,133.14
2023-05-01T03:50:07.463Z,131.54
2023-05-01T03:51:07.459Z,131.34
2023-05-01T03:52:07.475Z,134.33
2023-05-01T03:53:07.526Z,131.02
2023-05-01T03:54:07.589Z,129.10
2023-05-01T03:55:07.573Z,128.20
2023-05-01T03:56:07.644Z,133.91
2023-05-01T03:57:07.650Z,132.14
2023-05-01T03:58:07.700Z,133.16
2023-05-01T03:59:07.755Z,131.70
2023-05-01T04:00:07.767Z,130.95
2023-05-01T04:01:07.788Z,133.26
2023-05-01T04:02:07.911Z,132.56
2023-05-01T04:03:07.972Z,130.32
2023-05-01T04:04:08.041Z,117.11
2023-05-01T04:05:07.958Z,105.88
2023-05-01T04:06:08.073Z,91.78
2023-05-01T04:07:08.081Z,85.64
2023-05-01T04:08:08.160Z,82.56
2023-05-01T04:09:08.165Z,76.91
2023-05-01T04:10:08.163Z,70.85
2023-05-01T04:11:08.174Z,68.97
2023-05-01T04:12:08.254Z,71.49
2023-05-01T04:13:08.290Z,65.32
2023-05-01T04:14:08.352Z,64.58
2023-05-01T04:15:08.412Z,63.72
2023-05-01T04:16:08.541Z,73.04
2023-05-01T04:17:08.476Z,73.86
2023-05-01T04:18:08.640Z,74.08
2023-05-01T04:19:08.611Z,83.66
2023-05-01T04:20:08.701Z,74.93
2023-05-01T04:21:08.716Z,80.47
2023-05-01T04:22:08.788Z,70.60
2023-05-01T04:23:08.889Z,64.37
2023-05-01T04:24:08.909Z,64.51
2023-05-01T04:25:08.989Z,64.12
2023-05-01T04:26:09.045Z,56.38
2023-05-01T04:27:09.110Z,51.38
2023-05-01T04:28:09.136Z,48.47
2023-05-01T04:29:09.218Z,47.18
2023-05-01T04:30:09.274Z,44.57
2023-05-01T04:31:09.363Z,45.65
2023-05-01T04:32:09.408Z,56.97
2023-05-01T04:33:09.513Z,59.09
2023-05-01T04:34:09.508Z,56.45
2023-05-01T04:35:09.576Z,60.72
2023-05-01T04:36:09.595Z,62.03
2023-05-01T04:37:09.678Z,55.72
2023-05-01T04:38:09.765Z,56.12
2023-05-01T04:39:09.800Z,59.43
2023-05-01T04:40:11.561Z,61.89
2023-05-01T04:41:09.909Z,63.02
2023-05-01T04:42:09.951Z,62.59
2023-05-01T04:43:10.045Z,61.32
2023-05-01T04:44:10.094Z,61.53
2023-05-01T04:45:10.144Z,65.01
2023-05-01T04:46:10.252Z,60.72
2023-05-01T04:47:10.310Z,62.51
2023-05-01T04:48:10.380Z,68.88
2023-05-01T04:49:10.408Z,64.51
2023-05-01T04:50:10.437Z,61.86
2023-05-01T04:51:10.531Z,67.07
2023-05-01T04:52:10.548Z,68.96
2023-05-01T04:53:10.653Z,71.86
2023-05-01T04:54:10.653Z,69.48
2023-05-01T04:55:10.695Z,69.43
2023-05-01T04:56:10.765Z,73.21
2023-05-01T04:57:10.852Z,74.04
2023-05-01T04:58:10.920Z,74.50
2023-05-01T04:59:10.940Z,74.06
2023-05-01T05:00:11.032Z,73.72
2023-05-01T05:01:11.126Z,73.94
2023-05-01T05:02:11.106Z,76.37
2023-05-01T05:03:11.323Z,75.70
2023-05-01T05:04:11.301Z,77.31
2023-05-01T05:05:11.416Z,76.63
2023-05-01T05:06:11.427Z,80.14
2023-05-01T05:07:11.430Z,79.16
2023-05-01T05:08:11.495Z,80.52
2023-05-01T05:09:11.547Z,79.49
2023-05-01T05:10:11.598Z,78.69
2023-05-01T05:11:11.663Z,76.92
2023-05-01T05:12:11.690Z,84.92
2023-05-01T05:13:11.776Z,79.66
2023-05-01T05:14:11.797Z,80.95
2023-05-01T05:15:11.853Z,81.60
2023-05-01T05:16:11.969Z,78.70
2023-05-01T05:17:11.984Z,81.54
2023-05-01T05:18:12.115Z,83.79
2023-05-01T05:19:12.128Z,79.90
2023-05-01T05:20:12.148Z,83.28
2023-05-01T05:21:12.205Z,80.75
2023-05-01T05:22:12.243Z,86.72
2023-05-01T05:23:12.348Z,87.72
2023-05-01T05:24:12.378Z,83.73
2023-05-01T05:25:12.447Z,80.65
2023-05-01T05:26:12.508Z,83.39
2023-05-01T05:27:12.513Z,83.37
2023-05-01T05:28:12.649Z,83.01
2023-05-01T05:29:12.629Z,85.20
2023-05-01T05:30:12.688Z,83.06
2023-05-01T05:31:12.743Z,82.58
2023-05-01T05:32:12.836Z,85.01
2023-05-01T05:33:12.950Z,83.79
2023-05-01T05:34:12.948Z,84.10
2023-05-01T05:35:12.963Z,87.17
2023-05-01T05:36:13.021Z,86.31
2023-05-01T05:37:13.096Z,84.91
2023-05-01T05:38:13.136Z,83.84
2023-05-01T05:39:13.203Z,86.40
2023-05-01T05:40:13.226Z,85.08
2023-05-01T05:41:13.343Z,87.99
2023-05-01T05:42:13.366Z,88.03
2023-05-01T05:43:13.433Z,89.13
2023-05-01T05:44:13.490Z,86.59
2023-05-01T05:45:13.506Z,86.51
2023-05-01T05:46:13.629Z,88.62
2023-05-01T05:47:13.626Z,86.30
2023-05-01T05:48:13.742Z,84.66
2023-05-01T05:49:13.891Z,86.59
2023-05-01T05:50:13.834Z,86.22
2023-05-01T05:51:13.957Z,86.87
2023-05-01T05:52:13.907Z,87.08
2023-05-01T05:53:13.977Z,85.97
2023-05-01T05:54:14.028Z,86.53
2023-05-01T05:55:14.076Z,92.72
2023-05-01T05:56:14.126Z,90.96
2023-05-01T05:57:14.274Z,88.06
2023-05-01T05:58:14.280Z,90.44
2023-05-01T05:59:16.720Z,93.58
2023-05-01T06:00:14.316Z,91.32
2023-05-01T06:01:14.295Z,89.67
2023-05-01T06:02:14.320Z,90.26
2023-05-01T06:03:14.436Z,89.83
2023-05-01T06:04:14.255Z,89.87
2023-05-01T06:05:14.323Z,92.69
2023-05-01T06:06:14.310Z,90.54
2023-05-01T06:07:14.233Z,90.17
2023-05-01T06:08:14.283Z,89.88
2023-05-01T06:09:14.246Z,91.43
2023-05-01T06:10:14.233Z,92.29
2023-05-01T06:11:14.255Z,89.88
2023-05-01T06:12:14.215Z,88.84
2023-05-01T06:13:14.881Z,90.85
2023-05-01T06:14:14.213Z,88.81
2023-05-01T06:15:14.206Z,92.21
2023-05-01T06:16:14.216Z,88.52
2023-05-01T06:17:14.230Z,91.09
2023-05-01T06:18:14.283Z,88.78
2023-05-01T06:19:14.202Z,92.85
2023-05-01T06:20:14.152Z,89.54
2023-05-01T06:21:14.193Z,90.18
2023-05-01T06:22:14.178Z,90.44
2023-05-01T06:23:14.129Z,87.10
2023-05-01T06:24:14.144Z,89.47
2023-05-01T06:25:14.125Z,89.33
2023-05-01T06:26:14.100Z,89.63
2023-05-01T06:27:14.121Z,87.24
2023-05-01T06:28:14.088Z,92.55
2023-05-01T06:29:14.126Z,87.79
2023-05-01T06:30:14.134Z,89.32
2023-05-01T06:31:14.120Z,84.05
2023-05-01T06:32:14.083Z,85.12
2023-05-01T06:33:14.161Z,87.52
2023-05-01T06:34:14.109Z,87.11
2023-05-01T06:35:14.044Z,86.60
2023-05-01T06:36:14.035Z,86.15
2023-05-01T06:37:14.060Z,86.14
2023-05-01T06:38:14.087Z,87.11
2023-05-01T06:39:14.142Z,86.42
2023-05-01T06:40:14.177Z,89.29
2023-05-01T06:41:14.249Z,86.56
2023-05-01T06:42:14.313Z,84.18
2023-05-01T06:43:14.369Z,85.70
2023-05-01T06:44:14.424Z,85.35
2023-05-01T06:45:14.444Z,84.25
2023-05-01T06:46:14.551Z,81.88
2023-05-01T06:47:14.758Z,87.09
2023-05-01T06:48:14.713Z,83.00
2023-05-01T06:49:14.664Z,85.00
2023-05-01T06:50:14.774Z,85.71
2023-05-01T06:51:14.785Z,84.22
2023-05-01T06:52:14.840Z,86.43
2023-05-01T06:53:14.896Z,84.67
2023-05-01T06:54:14.956Z,83.57
2023-05-01T06:55:14.993Z,78.61
2023-05-01T06:56:15.089Z,85.40
2023-05-01T06:57:15.138Z,87.19
2023-05-01T06:58:23.374Z,82.92
2023-05-01T06:59:16.194Z,83.18
2023-05-01T07:00:15.156Z,83.93
2023-05-01T07:01:15.177Z,83.93
2023-05-01T07:02:15.211Z,84.33
2023-05-01T07:03:15.177Z,86.00
2023-05-01T07:04:15.125Z,91.89
2023-05-01T07:05:15.136Z,86.89
2023-05-01T07:06:15.237Z,89.62
2023-05-01T07:07:15.154Z,84.94
2023-05-01T07:08:15.211Z,83.70
2023-05-01T07:09:15.269Z,88.77
2023-05-01T07:10:15.315Z,85.88
2023-05-01T07:11:15.328Z,88.62
2023-05-01T07:12:15.392Z,83.70
2023-05-01T07:13:15.431Z,86.24
2023-05-01T07:14:15.503Z,89.95
2023-05-01T07:15:15.526Z,85.54
2023-05-01T07:16:15.593Z,84.72
2023-05-01T07:17:15.632Z,88.94
2023-05-01T07:18:15.677Z,84.73
2023-05-01T07:19:15.752Z,82.87
2023-05-01T07:20:15.824Z,87.78
2023-05-01T07:21:15.815Z,83.49
2023-05-01T07:22:15.891Z,88.68
2023-05-01T07:23:15.930Z,87.38
2023-05-01T07:24:15.979Z,85.43
2023-05-01T07:25:16.027Z,84.19
2023-05-01T07:26:16.058Z,85.05
2023-05-01T07:27:16.105Z,86.85
2023-05-01T07:28:16.200Z,84.08
2023-05-01T07:29:16.225Z,84.55
2023-05-01T07:30:16.309Z,86.54
2023-05-01T07:31:16.422Z,86.96
2023-05-01T07:32:16.430Z,85.77
2023-05-01T07:33:16.502Z,86.34
2023-05-01T07:34:16.467Z,85.79
2023-05-01T07:35:16.515Z,86.81
2023-05-01T07:36:16.577Z,84.81
2023-05-01T07:37:16.634Z,82.77
2023-05-01T07:38:16.702Z,86.54
2023-05-01T07:39:16.751Z,88.74
2023-05-01T07:40:16.806Z,87.81
2023-05-01T07:41:16.819Z,86.58
2023-05-01T07:42:16.883Z,88.52
2023-05-01T07:43:16.937Z,85.87
2023-05-01T07:44:16.996Z,87.57
2023-05-01T07:45:17.004Z,85.89
2023-05-01T07:46:17.082Z,86.38
2023-05-01T07:47:17.115Z,87.24
2023-05-01T07:48:17.176Z,87.43
2023-05-01T07:49:17.213Z,87.72
2023-05-01T07:50:17.304Z,90.48
2023-05-01T07:51:17.299Z,83.47
2023-05-01T07:52:17.410Z,87.82
2023-05-01T07:53:17.426Z,89.26
2023-05-01T07:54:17.451Z,86.55
2023-05-01T07:55:17.521Z,82.50
2023-05-01T07:56:17.615Z,88.91
2023-05-01T07:57:17.637Z,88.32
2023-05-01T07:58:17.645Z,90.39
2023-05-01T07:59:17.698Z,89.82
2023-05-01T08:00:17.773Z,90.16
2023-05-01T08:01:17.789Z,88.13
2023-05-01T08:02:17.905Z,86.12
2023-05-01T08:03:18.003Z,87.63
2023-05-01T08:04:18.059Z,85.04
2023-05-01T08:05:17.950Z,87.73
2023-05-01T08:06:18.096Z,90.11
2023-05-01T08:07:18.066Z,84.69
2023-05-01T08:08:18.122Z,87.52
2023-05-01T08:09:18.156Z,85.82
2023-05-01T08:10:18.191Z,85.60
2023-05-01T08:11:18.253Z,89.13
2023-05-01T08:12:18.310Z,86.42
2023-05-01T08:13:18.398Z,89.58
2023-05-01T08:14:18.432Z,87.18
2023-05-01T08:15:18.436Z,87.80
2023-05-01T08:16:20.399Z,86.03
2023-05-01T08:17:18.441Z,85.48
2023-05-01T08:18:18.434Z,89.23
2023-05-01T08:19:18.435Z,87.45
2023-05-01T08:20:18.446Z,87.17
2023-05-01T08:21:18.441Z,86.59
2023-05-01T08:22:18.428Z,87.67
2023-05-01T08:23:18.429Z,86.97
2023-05-01T08:24:18.415Z,88.12
2023-05-01T08:25:18.426Z,87.06
2023-05-01T08:26:18.782Z,85.12
2023-05-01T08:27:18.381Z,90.44
2023-05-01T08:28:18.423Z,89.04
2023-05-01T08:29:18.359Z,86.69
2023-05-01T08:30:18.346Z,88.54
2023-05-01T08:31:18.415Z,85.97
2023-05-01T08:32:18.400Z,88.12
2023-05-01T08:33:18.329Z,86.51
2023-05-01T08:34:18.358Z,87.13
2023-05-01T08:35:18.308Z,87.09
2023-05-01T08:36:19.434Z,90.35
2023-05-01T08:37:18.320Z,88.97
2023-05-01T08:38:18.331Z,86.52
2023-05-01T08:39:18.339Z,83.14
2023-05-01T08:40:18.412Z,85.68
2023-05-01T08:41:18.437Z,86.61
2023-05-01T08:42:18.458Z,87.82
2023-05-01T08:43:18.508Z,85.01
2023-05-01T08:44:18.550Z,86.42
2023-05-01T08:45:18.596Z,87.53
2023-05-01T08:46:18.666Z,88.35
2023-05-01T08:47:18.632Z,87.28
2023-05-01T08:48:18.787Z,86.60
2023-05-01T08:49:18.780Z,85.20
2023-05-01T08:50:18.767Z,86.78
2023-05-01T08:51:19.655Z,85.73
2023-05-01T08:52:18.797Z,89.77
2023-05-01T08:53:18.909Z,87.05
2023-05-01T08:54:18.900Z,84.89
2023-05-01T08:55:18.960Z,85.15
2023-05-01T08:56:18.967Z,91.46
2023-05-01T08:57:18.976Z,85.43
2023-05-01T08:58:19.046Z,86.59
2023-05-01T08:59:19.047Z,83.50
2023-05-01T09:00:19.090Z,85.73
2023-05-01T09:01:19.120Z,85.59
2023-05-01T09:02:19.105Z,84.45
2023-05-01T09:03:19.235Z,85.35
2023-05-01T09:04:19.311Z,86.89
2023-05-01T09:05:19.181Z,84.56
2023-05-01T09:06:19.285Z,85.61
2023-05-01T09:07:19.264Z,82.00
2023-05-01T09:08:19.289Z,85.94
2023-05-01T09:09:19.263Z,87.95
2023-05-01T09:10:19.353Z,86.99
2023-05-01T09:11:19.328Z,90.92
2023-05-01T09:12:19.334Z,95.32
2023-05-01T09:13:19.338Z,94.57
2023-05-01T09:14:19.350Z,94.77
2023-05-01T09:15:19.370Z,94.02
2023-05-01T09:16:19.408Z,91.17
2023-05-01T09:17:19.430Z,89.66
2023-05-01T09:18:19.403Z,92.37
2023-05-01T09:19:19.429Z,90.88
2023-05-01T09:20:19.452Z,90.54
2023-05-01T09:21:19.474Z,88.54
2023-05-01T09:22:19.497Z,90.91
2023-05-01T09:23:19.567Z,90.62
2023-05-01T09:24:19.578Z,89.65
2023-05-01T09:25:19.598Z,90.20
2023-05-01T09:26:19.579Z,86.59
2023-05-01T09:27:19.694Z,90.21
2023-05-01T09:28:19.703Z,89.64
2023-05-01T09:29:19.662Z,85.74
2023-05-01T09:30:19.756Z,87.15
2023-05-01T09:31:19.806Z,88.66
2023-05-01T09:32:19.900Z,90.36
2023-05-01T09:33:19.836Z,86.33
2023-05-01T09:34:19.899Z,89.95
2023-05-01T09:35:19.854Z,86.78
2023-05-01T09:36:19.856Z,84.98
2023-05-01T09:37:19.866Z,86.68
2023-05-01T09:38:19.909Z,88.91
2023-05-01T09:39:19.952Z,87.08
2023-05-01T09:40:19.942Z,91.65
2023-05-01T09:41:19.959Z,87.70
2023-05-01T09:42:20.026Z,84.99
2023-05-01T09:43:20.002Z,86.14
2023-05-01T09:44:20.055Z,87.25
2023-05-01T09:45:20.136Z,87.24
2023-05-01T09:46:20.152Z,86.36
2023-05-01T09:47:20.100Z,87.86
2023-05-01T09:48:20.143Z,85.10
2023-05-01T09:49:20.170Z,87.12
2023-05-01T09:50:20.161Z,86.84
2023-05-01T09:51:20.165Z,85.66
2023-05-01T09:52:20.172Z,85.69
2023-05-01T09:53:20.184Z,86.95
2023-05-01T09:54:20.197Z,85.15
2023-05-01T09:55:20.214Z,89.46
2023-05-01T09:56:20.221Z,93.49
2023-05-01T09:57:20.217Z,97.76
2023-05-01T09:58:20.218Z,102.04
2023-05-01T09:59:20.295Z,101.38
2023-05-01T10:00:20.235Z,101.64
2023-05-01T10:01:20.255Z,99.47
2023-05-01T10:02:20.321Z,97.36
2023-05-01T10:03:20.310Z,93.07
2023-05-01T10:04:20.260Z,93.58
2023-05-01T10:05:20.282Z,96.43
2023-05-01T10:06:20.337Z,93.34
2023-05-01T10:07:20.329Z,91.36
2023-05-01T10:08:20.423Z,88.72
2023-05-01T10:09:20.416Z,92.58
2023-05-01T10:10:20.377Z,92.85
2023-05-01T10:11:20.449Z,90.41
2023-05-01T10:12:20.413Z,89.87
2023-05-01T10:13:20.437Z,88.29
2023-05-01T10:14:20.469Z,88.54
2023-05-01T10:15:26.226Z,92.62
2023-05-01T10:16:21.488Z,92.85
2023-05-01T10:17:20.445Z,92.96
2023-05-01T10:18:20.501Z,93.75
2023-05-01T10:19:20.401Z,93.47
2023-05-01T10:20:20.433Z,89.50
2023-05-01T10:21:20.396Z,92.50
2023-05-01T10:22:20.386Z,91.45
2023-05-01T10:23:20.389Z,91.18
2023-05-01T10:24:20.373Z,93.60
2023-05-01T10:25:20.348Z,92.29
2023-05-01T10:26:20.375Z,94.34
2023-05-01T10:27:20.375Z,92.71
2023-05-01T10:28:20.322Z,89.87
2023-05-01T10:29:20.360Z,90.49
2023-05-01T10:30:20.398Z,91.30
2023-05-01T10:31:20.417Z,89.44
2023-05-01T10:32:20.336Z,91.58
2023-05-01T10:33:20.352Z,89.25
2023-05-01T10:34:20.311Z,95.25
2023-05-01T10:35:20.332Z,89.54
2023-05-01T10:36:20.296Z,91.55
2023-05-01T10:37:20.319Z,92.74
2023-05-01T10:38:20.290Z,89.43
2023-05-01T10:39:20.254Z,89.09
2023-05-01T10:40:20.253Z,91.01
2023-05-01T10:41:20.252Z,89.05
2023-05-01T10:42:20.256Z,94.60
2023-05-01T10:43:20.242Z,99.46
2023-05-01T10:44:20.231Z,104.67
2023-05-01T10:45:20.235Z,108.19
2023-05-01T10:46:20.310Z,109.70
2023-05-01T10:47:20.291Z,106.61
2023-05-01T10:48:20.202Z,105.82
2023-05-01T10:49:20.249Z,102.69
2023-05-01T10:50:20.274Z,100.83
2023-05-01T10:51:20.333Z,102.25
2023-05-01T10:52:20.299Z,100.79
2023-05-01T10:53:20.320Z,100.52
2023-05-01T10:54:20.328Z,98.38
2023-05-01T10:55:20.309Z,101.32
2023-05-01T10:56:20.316Z,96.44
2023-05-01T10:57:20.378Z,96.32
2023-05-01T10:58:20.360Z,95.64
2023-05-01T10:59:20.374Z,94.75
2023-05-01T11:00:20.417Z,96.05
2023-05-01T11:01:20.464Z,96.76
2023-05-01T11:02:20.488Z,97.72
2023-05-01T11:03:20.421Z,97.19
2023-05-01T11:04:20.430Z,97.26
2023-05-01T11:05:28.897Z,95.19
2023-05-01T11:06:21.568Z,95.59
2023-05-01T11:07:20.585Z,95.94
2023-05-01T11:08:20.423Z,97.40
2023-05-01T11:09:20.403Z,97.72
2023-05-01T11:10:20.423Z,95.38
2023-05-01T11:11:20.402Z,96.19
2023-05-01T11:12:20.524Z,97.83
2023-05-01T11:13:20.365Z,94.78
2023-05-01T11:14:20.385Z,97.62
2023-05-01T11:15:20.351Z,94.65
2023-05-01T11:16:20.406Z,97.34
2023-05-01T11:17:20.358Z,98.39
2023-05-01T11:18:20.348Z,98.03
2023-05-01T11:19:20.335Z,95.72
2023-05-01T11:20:20.337Z,95.43
2023-05-01T11:21:20.312Z,96.44
2023-05-01T11:22:20.382Z,95.51
2023-05-01T11:23:20.310Z,95.95
2023-05-01T11:24:20.310Z,93.36
2023-05-01T11:25:20.298Z,95.31
2023-05-01T11:26:20.297Z,92.58
2023-05-01T11:27:20.258Z,95.11
2023-05-01T11:28:20.314Z,95.73
2023-05-01T11:29:20.286Z,97.35
2023-05-01T11:30:20.276Z,99.92
2023-05-01T11:31:20.401Z,104.59
2023-05-01T11:32:20.452Z,106.50
2023-05-01T11:33:20.320Z,107.41
2023-05-01T11:34:20.251Z,109.16
2023-05-01T11:35:20.260Z,107.22
2023-05-01T11:36:20.181Z,106.89
2023-05-01T11:37:20.217Z,104.56
2023-05-01T11:38:20.193Z,102.66
2023-05-01T11:39:20.195Z,99.96
2023-05-01T11:40:20.225Z,99.13
2023-05-01T11:41:20.357Z,99.61
2023-05-01T11:42:20.185Z,101.19
2023-05-01T11:43:20.139Z,96.16
2023-05-01T11:44:20.155Z,98.14
2023-05-01T11:45:20.165Z,99.93
2023-05-01T11:46:20.199Z,100.26
2023-05-01T11:47:20.159Z,96.62
2023-05-01T11:48:20.172Z,99.99
2023-05-01T11:49:20.150Z,99.86
2023-05-01T11:50:20.121Z,98.06
2023-05-01T11:51:20.133Z,97.42
2023-05-01T11:52:20.112Z,99.11
2023-05-01T11:53:20.109Z,97.70
2023-05-01T11:54:20.105Z,99.12
2023-05-01T11:55:20.197Z,98.36
2023-05-01T11:56:26.506Z,98.01
2023-05-01T11:57:21.119Z,98.27
2023-05-01T11:58:20.109Z,98.52
2023-05-01T11:59:20.111Z,98.86
2023-05-01T12:00:20.126Z,99.16
2023-05-01T12:01:20.130Z,99.44
2023-05-01T12:02:20.138Z,97.35
2023-05-01T12:03:20.277Z,97.27
2023-05-01T12:04:20.183Z,97.59
2023-05-01T12:05:20.061Z,101.49
2023-05-01T12:06:20.094Z,98.64
2023-05-01T12:07:20.071Z,99.17
2023-05-01T12:08:20.035Z,99.65
2023-05-01T12:09:20.084Z,97.81
2023-05-01T12:10:20.085Z,95.94
2023-05-01T12:11:20.141Z,98.32
2023-05-01T12:12:20.167Z,96.32
2023-05-01T12:13:20.218Z,94.47
2023-05-01T12:14:20.229Z,96.32
2023-05-01T12:15:20.287Z,94.22
2023-05-01T12:16:20.368Z,94.14
2023-05-01T12:17:20.390Z,99.48
2023-05-01T12:18:20.407Z,105.96
2023-05-01T12:19:21.811Z,108.00
2023-05-01T12:20:20.358Z,109.62
2023-05-01T12:21:20.343Z,109.86
2023-05-01T12:22:20.364Z,109.22
2023-05-01T12:23:20.361Z,108.99
2023-05-01T12:24:20.367Z,106.06
2023-05-01T12:25:20.345Z,103.35
2023-05-01T12:26:20.330Z,99.82
2023-05-01T12:27:20.317Z,103.57
2023-05-01T12:28:20.426Z,103.64
2023-05-01T12:29:20.341Z,102.10
2023-05-01T12:30:20.286Z,103.10
2023-05-01T12:31:20.384Z,102.75
2023-05-01T12:32:20.294Z,99.58
2023-05-01T12:33:20.380Z,101.25
2023-05-01T12:34:20.345Z,101.75
2023-05-01T12:35:20.392Z,100.99
2023-05-01T12:36:20.439Z,101.13
2023-05-01T12:37:20.518Z,99.44
2023-05-01T12:38:20.552Z,100.47
2023-05-01T12:39:20.642Z,101.21
2023-05-01T12:40:20.710Z,99.46
2023-05-01T12:41:20.758Z,102.05
2023-05-01T12:42:20.783Z,97.55
2023-05-01T12:43:20.820Z,98.04
2023-05-01T12:44:20.895Z,99.93